sensor_id;sensor_type;location;lat;lon;timestamp;P1;durP1;ratioP1;P2;durP2;ratioP2
15383;SDS011;7790;53.022;12.968;2022-10-23T00:03:09;1.27;;;1.23;;
15383;SDS011;7790;53.022;12.968;2022-10-23T00:07:10;1.47;;;1.37;;
15383;SDS011;7790;53.022;12.968;2022-10-23T00:11:12;1.37;;;1.20;;
15383;SDS011;7790;53.022;12.968;2022-10-23T00:15:16;1.10;;;1.00;;
15383;SDS011;7790;53.022;12.968;2022-10-23T00:19:20;0.97;;;0.97;;
15383;SDS011;7790;53.022;12.968;2022-10-23T00:23:20;0.93;;;0.83;;
15383;SDS011;7790;53.022;12.968;2022-10-23T00:27:21;1.13;;;1.03;;
15383;SDS011;7790;53.022;12.968;2022-10-23T00:31:23;1.00;;;0.90;;
15383;SDS011;7790;53.022;12.968;2022-10-23T00:35:24;1.00;;;1.00;;
15383;SDS011;7790;53.022;12.968;2022-10-23T00:39:25;1.20;;;1.07;;
15383;SDS011;7790;53.022;12.968;2022-10-23T00:43:27;1.20;;;1.10;;
15383;SDS011;7790;53.022;12.968;2022-10-23T00:47:29;1.23;;;1.10;;
15383;SDS011;7790;53.022;12.968;2022-10-23T00:51:32;1.33;;;1.00;;
15383;SDS011;7790;53.022;12.968;2022-10-23T00:55:47;0.93;;;0.93;;
15383;SDS011;7790;53.022;12.968;2022-10-23T00:59:50;1.47;;;1.10;;
15383;SDS011;7790;53.022;12.968;2022-10-23T01:03:51;0.80;;;0.80;;
15383;SDS011;7790;53.022;12.968;2022-10-23T01:07:58;6.60;;;1.43;;
15383;SDS011;7790;53.022;12.968;2022-10-23T01:16:48;1.00;;;1.00;;
15383;SDS011;7790;53.022;12.968;2022-10-23T01:20:59;1.13;;;1.00;;
15383;SDS011;7790;53.022;12.968;2022-10-23T01:29:17;0.90;;;0.90;;
15383;SDS011;7790;53.022;12.968;2022-10-23T01:33:26;0.87;;;0.87;;
15383;SDS011;7790;53.022;12.968;2022-10-23T01:37:52;1.77;;;1.27;;
15383;SDS011;7790;53.022;12.968;2022-10-23T01:42:19;1.03;;;1.03;;
15383;SDS011;7790;53.022;12.968;2022-10-23T01:46:28;1.20;;;1.10;;
15383;SDS011;7790;53.022;12.968;2022-10-23T01:50:31;1.00;;;0.90;;
15383;SDS011;7790;53.022;12.968;2022-10-23T01:54:40;1.10;;;1.00;;
15383;SDS011;7790;53.022;12.968;2022-10-23T01:58:44;1.30;;;1.00;;
15383;SDS011;7790;53.022;12.968;2022-10-23T02:02:48;2.10;;;0.90;;
15383;SDS011;7790;53.022;12.968;2022-10-23T02:06:51;1.10;;;1.00;;
15383;SDS011;7790;53.022;12.968;2022-10-23T02:15:19;3.40;;;1.10;;
15383;SDS011;7790;53.022;12.968;2022-10-23T02:19:31;1.03;;;0.97;;
15383;SDS011;7790;53.022;12.968;2022-10-23T02:23:48;3.00;;;1.20;;
15383;SDS011;7790;53.022;12.968;2022-10-23T02:27:55;3.43;;;1.00;;
15383;SDS011;7790;53.022;12.968;2022-10-23T02:32:08;1.10;;;1.00;;
15383;SDS011;7790;53.022;12.968;2022-10-23T02:36:10;2.10;;;1.30;;
15383;SDS011;7790;53.022;12.968;2022-10-23T02:40:12;1.43;;;1.03;;
15383;SDS011;7790;53.022;12.968;2022-10-23T02:48:54;2.27;;;1.10;;
15383;SDS011;7790;53.022;12.968;2022-10-23T03:06:59;1.30;;;0.87;;
15383;SDS011;7790;53.022;12.968;2022-10-23T03:11:02;1.80;;;1.23;;
15383;SDS011;7790;53.022;12.968;2022-10-23T03:15:03;0.90;;;0.90;;
15383;SDS011;7790;53.022;12.968;2022-10-23T03:19:05;1.57;;;1.07;;
15383;SDS011;7790;53.022;12.968;2022-10-23T03:23:06;3.23;;;0.93;;
15383;SDS011;7790;53.022;12.968;2022-10-23T03:27:10;0.90;;;0.90;;
15383;SDS011;7790;53.022;12.968;2022-10-23T03:31:11;0.80;;;0.80;;
15383;SDS011;7790;53.022;12.968;2022-10-23T03:35:13;0.97;;;0.97;;
15383;SDS011;7790;53.022;12.968;2022-10-23T03:39:15;1.00;;;1.00;;
15383;SDS011;7790;53.022;12.968;2022-10-23T03:43:16;0.80;;;0.80;;
15383;SDS011;7790;53.022;12.968;2022-10-23T03:47:17;1.20;;;1.00;;
15383;SDS011;7790;53.022;12.968;2022-10-23T03:51:18;0.80;;;0.80;;
15383;SDS011;7790;53.022;12.968;2022-10-23T03:55:18;0.87;;;0.80;;
15383;SDS011;7790;53.022;12.968;2022-10-23T03:59:19;0.97;;;0.87;;
15383;SDS011;7790;53.022;12.968;2022-10-23T04:03:22;0.80;;;0.80;;
15383;SDS011;7790;53.022;12.968;2022-10-23T04:07:23;0.80;;;0.80;;
15383;SDS011;7790;53.022;12.968;2022-10-23T04:11:24;0.80;;;0.80;;
15383;SDS011;7790;53.022;12.968;2022-10-23T04:15:25;0.93;;;0.83;;
15383;SDS011;7790;53.022;12.968;2022-10-23T04:19:26;1.43;;;0.93;;
15383;SDS011;7790;53.022;12.968;2022-10-23T04:23:29;1.93;;;0.80;;
15383;SDS011;7790;53.022;12.968;2022-10-23T04:27:30;0.90;;;0.90;;
15383;SDS011;7790;53.022;12.968;2022-10-23T04:31:31;0.70;;;0.70;;
15383;SDS011;7790;53.022;12.968;2022-10-23T04:35:32;0.80;;;0.80;;
15383;SDS011;7790;53.022;12.968;2022-10-23T04:39:33;0.80;;;0.80;;
15383;SDS011;7790;53.022;12.968;2022-10-23T04:43:34;2.50;;;0.83;;
15383;SDS011;7790;53.022;12.968;2022-10-23T04:47:37;0.80;;;0.80;;
15383;SDS011;7790;53.022;12.968;2022-10-23T04:51:38;0.80;;;0.80;;
15383;SDS011;7790;53.022;12.968;2022-10-23T04:55:59;0.93;;;0.80;;
15383;SDS011;7790;53.022;12.968;2022-10-23T05:00:11;0.73;;;0.73;;
15383;SDS011;7790;53.022;12.968;2022-10-23T05:04:28;0.83;;;0.83;;
15383;SDS011;7790;53.022;12.968;2022-10-23T05:08:48;0.70;;;0.70;;
15383;SDS011;7790;53.022;12.968;2022-10-23T05:13:27;0.87;;;0.87;;
15383;SDS011;7790;53.022;12.968;2022-10-23T05:17:30;0.70;;;0.70;;
15383;SDS011;7790;53.022;12.968;2022-10-23T05:21:35;0.77;;;0.77;;
15383;SDS011;7790;53.022;12.968;2022-10-23T05:25:39;1.20;;;1.10;;
15383;SDS011;7790;53.022;12.968;2022-10-23T05:29:51;0.97;;;0.97;;
15383;SDS011;7790;53.022;12.968;2022-10-23T05:33:56;0.97;;;0.97;;
15383;SDS011;7790;53.022;12.968;2022-10-23T05:37:59;1.00;;;0.90;;
15383;SDS011;7790;53.022;12.968;2022-10-23T05:42:01;1.80;;;1.50;;
15383;SDS011;7790;53.022;12.968;2022-10-23T05:46:05;1.70;;;1.60;;
15383;SDS011;7790;53.022;12.968;2022-10-23T05:50:06;1.93;;;1.70;;
15383;SDS011;7790;53.022;12.968;2022-10-23T05:54:21;1.50;;;1.40;;
15383;SDS011;7790;53.022;12.968;2022-10-23T05:58:48;1.40;;;1.30;;
15383;SDS011;7790;53.022;12.968;2022-10-23T06:03:24;1.33;;;1.23;;
15383;SDS011;7790;53.022;12.968;2022-10-23T06:07:26;1.13;;;1.10;;
15383;SDS011;7790;53.022;12.968;2022-10-23T06:11:29;1.40;;;1.30;;
15383;SDS011;7790;53.022;12.968;2022-10-23T06:15:36;1.10;;;1.00;;
15383;SDS011;7790;53.022;12.968;2022-10-23T06:19:43;1.47;;;1.37;;
15383;SDS011;7790;53.022;12.968;2022-10-23T06:23:46;2.27;;;1.77;;
15383;SDS011;7790;53.022;12.968;2022-10-23T06:28:06;2.50;;;2.30;;
15383;SDS011;7790;53.022;12.968;2022-10-23T06:32:07;3.77;;;3.47;;
15383;SDS011;7790;53.022;12.968;2022-10-23T06:36:09;4.17;;;3.77;;
15383;SDS011;7790;53.022;12.968;2022-10-23T06:40:11;3.40;;;3.10;;
15383;SDS011;7790;53.022;12.968;2022-10-23T06:44:37;3.17;;;2.87;;
15383;SDS011;7790;53.022;12.968;2022-10-23T06:48:42;3.10;;;2.90;;
15383;SDS011;7790;53.022;12.968;2022-10-23T06:52:50;3.50;;;3.20;;
15383;SDS011;7790;53.022;12.968;2022-10-23T06:56:51;2.50;;;2.30;;
15383;SDS011;7790;53.022;12.968;2022-10-23T07:01:00;2.50;;;2.30;;
15383;SDS011;7790;53.022;12.968;2022-10-23T07:05:02;2.30;;;2.10;;
15383;SDS011;7790;53.022;12.968;2022-10-23T07:09:04;2.90;;;1.80;;
15383;SDS011;7790;53.022;12.968;2022-10-23T07:13:24;1.90;;;1.80;;
15383;SDS011;7790;53.022;12.968;2022-10-23T07:17:38;2.30;;;2.10;;
15383;SDS011;7790;53.022;12.968;2022-10-23T07:21:38;2.20;;;2.00;;
15383;SDS011;7790;53.022;12.968;2022-10-23T07:26:05;2.20;;;2.00;;
15383;SDS011;7790;53.022;12.968;2022-10-23T07:30:08;2.10;;;2.00;;
15383;SDS011;7790;53.022;12.968;2022-10-23T07:34:19;1.70;;;1.60;;
15383;SDS011;7790;53.022;12.968;2022-10-23T07:38:26;2.13;;;1.93;;
15383;SDS011;7790;53.022;12.968;2022-10-23T07:42:28;2.63;;;1.90;;
15383;SDS011;7790;53.022;12.968;2022-10-23T07:46:29;1.90;;;1.80;;
15383;SDS011;7790;53.022;12.968;2022-10-23T07:50:29;3.33;;;2.00;;
15383;SDS011;7790;53.022;12.968;2022-10-23T07:54:30;2.03;;;1.93;;
15383;SDS011;7790;53.022;12.968;2022-10-23T07:58:34;3.57;;;1.90;;
15383;SDS011;7790;53.022;12.968;2022-10-23T08:02:47;1.97;;;1.77;;
15383;SDS011;7790;53.022;12.968;2022-10-23T08:06:48;6.30;;;2.10;;
15383;SDS011;7790;53.022;12.968;2022-10-23T08:10:50;2.20;;;2.00;;
15383;SDS011;7790;53.022;12.968;2022-10-23T08:14:59;3.87;;;2.00;;
15383;SDS011;7790;53.022;12.968;2022-10-23T08:19:07;2.70;;;2.13;;
15383;SDS011;7790;53.022;12.968;2022-10-23T08:23:15;3.47;;;2.00;;
15383;SDS011;7790;53.022;12.968;2022-10-23T08:27:18;3.30;;;2.00;;
15383;SDS011;7790;53.022;12.968;2022-10-23T08:31:21;2.17;;;1.97;;
15383;SDS011;7790;53.022;12.968;2022-10-23T08:35:45;4.93;;;2.30;;
15383;SDS011;7790;53.022;12.968;2022-10-23T08:39:46;3.97;;;1.90;;
15383;SDS011;7790;53.022;12.968;2022-10-23T08:43:56;7.00;;;2.47;;
15383;SDS011;7790;53.022;12.968;2022-10-23T08:52:47;10.20;;;2.80;;
15383;SDS011;7790;53.022;12.968;2022-10-23T08:56:54;11.03;;;2.67;;
15383;SDS011;7790;53.022;12.968;2022-10-23T09:01:00;9.53;;;2.67;;
15383;SDS011;7790;53.022;12.968;2022-10-23T09:05:13;4.77;;;2.30;;
15383;SDS011;7790;53.022;12.968;2022-10-23T09:18:10;3.00;;;2.10;;
15383;SDS011;7790;53.022;12.968;2022-10-23T09:22:13;8.13;;;2.17;;
15383;SDS011;7790;53.022;12.968;2022-10-23T09:26:15;3.67;;;2.43;;
15383;SDS011;7790;53.022;12.968;2022-10-23T09:30:27;5.23;;;2.30;;
15383;SDS011;7790;53.022;12.968;2022-10-23T09:34:32;6.00;;;2.50;;
15383;SDS011;7790;53.022;12.968;2022-10-23T09:38:38;3.23;;;2.00;;
15383;SDS011;7790;53.022;12.968;2022-10-23T09:42:58;5.77;;;2.27;;
15383;SDS011;7790;53.022;12.968;2022-10-23T09:51:19;6.43;;;2.30;;
15383;SDS011;7790;53.022;12.968;2022-10-23T09:55:21;5.73;;;2.40;;
15383;SDS011;7790;53.022;12.968;2022-10-23T09:59:26;5.70;;;2.73;;
15383;SDS011;7790;53.022;12.968;2022-10-23T10:03:29;6.73;;;2.40;;
15383;SDS011;7790;53.022;12.968;2022-10-23T10:07:37;8.77;;;2.53;;
15383;SDS011;7790;53.022;12.968;2022-10-23T10:15:49;6.73;;;2.37;;
15383;SDS011;7790;53.022;12.968;2022-10-23T10:33:21;5.53;;;2.80;;
15383;SDS011;7790;53.022;12.968;2022-10-23T10:37:28;5.87;;;2.47;;
15383;SDS011;7790;53.022;12.968;2022-10-23T10:45:48;9.33;;;2.57;;
15383;SDS011;7790;53.022;12.968;2022-10-23T10:54:15;6.63;;;2.63;;
15383;SDS011;7790;53.022;12.968;2022-10-23T10:58:41;4.13;;;1.97;;
15383;SDS011;7790;53.022;12.968;2022-10-23T11:02:57;7.40;;;2.50;;
15383;SDS011;7790;53.022;12.968;2022-10-23T11:07:08;4.23;;;2.23;;
15383;SDS011;7790;53.022;12.968;2022-10-23T11:11:15;6.07;;;2.10;;
15383;SDS011;7790;53.022;12.968;2022-10-23T11:15:34;8.37;;;2.13;;
15383;SDS011;7790;53.022;12.968;2022-10-23T11:19:44;7.60;;;2.30;;
15383;SDS011;7790;53.022;12.968;2022-10-23T11:36:57;5.63;;;2.50;;
15383;SDS011;7790;53.022;12.968;2022-10-23T11:41:02;4.93;;;2.10;;
15383;SDS011;7790;53.022;12.968;2022-10-23T11:49:24;8.77;;;2.60;;
15383;SDS011;7790;53.022;12.968;2022-10-23T11:57:26;7.47;;;2.20;;
15383;SDS011;7790;53.022;12.968;2022-10-23T12:05:44;5.80;;;2.03;;
15383;SDS011;7790;53.022;12.968;2022-10-23T12:09:51;5.00;;;2.30;;
15383;SDS011;7790;53.022;12.968;2022-10-23T12:14:01;6.90;;;2.63;;
15383;SDS011;7790;53.022;12.968;2022-10-23T12:18:14;5.63;;;2.03;;
15383;SDS011;7790;53.022;12.968;2022-10-23T12:22:17;4.63;;;1.83;;
15383;SDS011;7790;53.022;12.968;2022-10-23T12:26:41;6.20;;;2.30;;
15383;SDS011;7790;53.022;12.968;2022-10-23T12:31:07;5.13;;;2.17;;
15383;SDS011;7790;53.022;12.968;2022-10-23T12:40:06;4.33;;;1.73;;
15383;SDS011;7790;53.022;12.968;2022-10-23T12:44:08;5.33;;;1.70;;
15383;SDS011;7790;53.022;12.968;2022-10-23T12:48:18;4.83;;;2.10;;
15383;SDS011;7790;53.022;12.968;2022-10-23T12:52:21;5.17;;;2.00;;
15383;SDS011;7790;53.022;12.968;2022-10-23T12:56:24;4.97;;;2.10;;
15383;SDS011;7790;53.022;12.968;2022-10-23T13:00:26;2.80;;;1.67;;
15383;SDS011;7790;53.022;12.968;2022-10-23T13:04:29;10.93;;;2.03;;
15383;SDS011;7790;53.022;12.968;2022-10-23T13:08:35;8.67;;;2.30;;
15383;SDS011;7790;53.022;12.968;2022-10-23T13:13:03;7.73;;;2.00;;
15383;SDS011;7790;53.022;12.968;2022-10-23T13:17:06;6.43;;;2.03;;
15383;SDS011;7790;53.022;12.968;2022-10-23T13:21:17;3.03;;;1.80;;
15383;SDS011;7790;53.022;12.968;2022-10-23T13:25:32;4.47;;;1.80;;
15383;SDS011;7790;53.022;12.968;2022-10-23T13:29:34;5.90;;;1.93;;
15383;SDS011;7790;53.022;12.968;2022-10-23T13:37:42;6.10;;;1.60;;
15383;SDS011;7790;53.022;12.968;2022-10-23T13:41:44;2.93;;;1.90;;
15383;SDS011;7790;53.022;12.968;2022-10-23T13:45:45;4.43;;;1.63;;
15383;SDS011;7790;53.022;12.968;2022-10-23T13:49:46;2.77;;;1.90;;
15383;SDS011;7790;53.022;12.968;2022-10-23T13:53:47;4.03;;;1.70;;
15383;SDS011;7790;53.022;12.968;2022-10-23T13:57:49;4.00;;;1.90;;
15383;SDS011;7790;53.022;12.968;2022-10-23T14:01:50;3.90;;;1.60;;
15383;SDS011;7790;53.022;12.968;2022-10-23T14:05:51;4.97;;;2.13;;
15383;SDS011;7790;53.022;12.968;2022-10-23T14:09:52;4.70;;;1.80;;
15383;SDS011;7790;53.022;12.968;2022-10-23T14:13:53;4.27;;;1.90;;
15383;SDS011;7790;53.022;12.968;2022-10-23T14:17:54;5.77;;;2.17;;
15383;SDS011;7790;53.022;12.968;2022-10-23T14:21:55;4.50;;;1.83;;
15383;SDS011;7790;53.022;12.968;2022-10-23T14:26:03;5.07;;;2.00;;
15383;SDS011;7790;53.022;12.968;2022-10-23T14:30:09;4.80;;;2.60;;
15383;SDS011;7790;53.022;12.968;2022-10-23T14:34:10;4.93;;;2.00;;
15383;SDS011;7790;53.022;12.968;2022-10-23T14:38:12;3.87;;;2.00;;
15383;SDS011;7790;53.022;12.968;2022-10-23T14:42:13;5.63;;;2.50;;
15383;SDS011;7790;53.022;12.968;2022-10-23T14:46:16;4.20;;;2.50;;
15383;SDS011;7790;53.022;12.968;2022-10-23T14:50:19;4.43;;;2.37;;
15383;SDS011;7790;53.022;12.968;2022-10-23T14:54:20;4.80;;;2.10;;
15383;SDS011;7790;53.022;12.968;2022-10-23T14:58:20;6.90;;;2.57;;
15383;SDS011;7790;53.022;12.968;2022-10-23T15:02:23;7.20;;;2.50;;
15383;SDS011;7790;53.022;12.968;2022-10-23T15:06:24;4.67;;;2.53;;
15383;SDS011;7790;53.022;12.968;2022-10-23T15:10:25;5.67;;;2.37;;
15383;SDS011;7790;53.022;12.968;2022-10-23T15:14:26;4.10;;;2.20;;
15383;SDS011;7790;53.022;12.968;2022-10-23T15:18:27;4.30;;;2.40;;
15383;SDS011;7790;53.022;12.968;2022-10-23T15:22:28;7.70;;;2.63;;
15383;SDS011;7790;53.022;12.968;2022-10-23T15:26:29;9.17;;;2.77;;
15383;SDS011;7790;53.022;12.968;2022-10-23T15:30:30;3.20;;;2.17;;
15383;SDS011;7790;53.022;12.968;2022-10-23T15:34:32;6.80;;;2.80;;
15383;SDS011;7790;53.022;12.968;2022-10-23T15:38:33;7.03;;;2.97;;
15383;SDS011;7790;53.022;12.968;2022-10-23T15:42:34;4.80;;;2.50;;
15383;SDS011;7790;53.022;12.968;2022-10-23T15:46:34;4.67;;;2.40;;
15383;SDS011;7790;53.022;12.968;2022-10-23T15:50:35;5.23;;;2.43;;
15383;SDS011;7790;53.022;12.968;2022-10-23T15:54:36;8.83;;;2.30;;
15383;SDS011;7790;53.022;12.968;2022-10-23T15:58:37;5.80;;;2.30;;
15383;SDS011;7790;53.022;12.968;2022-10-23T16:02:38;4.10;;;2.50;;
15383;SDS011;7790;53.022;12.968;2022-10-23T16:06:39;10.57;;;2.87;;
15383;SDS011;7790;53.022;12.968;2022-10-23T16:10:41;3.90;;;2.50;;
15383;SDS011;7790;53.022;12.968;2022-10-23T16:14:45;9.47;;;4.33;;
15383;SDS011;7790;53.022;12.968;2022-10-23T16:18:47;23.90;;;8.47;;
15383;SDS011;7790;53.022;12.968;2022-10-23T16:22:48;71.03;;;24.27;;
15383;SDS011;7790;53.022;12.968;2022-10-23T16:26:49;110.67;;;41.27;;
15383;SDS011;7790;53.022;12.968;2022-10-23T16:30:52;132.17;;;49.63;;
15383;SDS011;7790;53.022;12.968;2022-10-23T16:34:53;148.77;;;56.20;;
15383;SDS011;7790;53.022;12.968;2022-10-23T16:38:54;174.70;;;65.90;;
15383;SDS011;7790;53.022;12.968;2022-10-23T16:43:15;183.87;;;70.43;;
15383;SDS011;7790;53.022;12.968;2022-10-23T16:47:25;180.87;;;75.80;;
15383;SDS011;7790;53.022;12.968;2022-10-23T16:51:26;188.97;;;78.87;;
15383;SDS011;7790;53.022;12.968;2022-10-23T16:55:29;180.27;;;79.93;;
15383;SDS011;7790;53.022;12.968;2022-10-23T16:59:30;185.03;;;76.73;;
15383;SDS011;7790;53.022;12.968;2022-10-23T17:03:35;177.13;;;77.63;;
15383;SDS011;7790;53.022;12.968;2022-10-23T17:07:37;175.60;;;77.13;;
15383;SDS011;7790;53.022;12.968;2022-10-23T17:11:38;166.73;;;72.70;;
15383;SDS011;7790;53.022;12.968;2022-10-23T17:15:40;139.10;;;60.63;;
15383;SDS011;7790;53.022;12.968;2022-10-23T17:19:41;101.87;;;47.90;;
15383;SDS011;7790;53.022;12.968;2022-10-23T17:23:42;90.47;;;42.00;;
15383;SDS011;7790;53.022;12.968;2022-10-23T17:27:44;84.47;;;41.87;;
15383;SDS011;7790;53.022;12.968;2022-10-23T17:31:46;85.10;;;41.80;;
15383;SDS011;7790;53.022;12.968;2022-10-23T17:35:48;83.27;;;41.00;;
15383;SDS011;7790;53.022;12.968;2022-10-23T17:39:49;78.77;;;39.37;;
15383;SDS011;7790;53.022;12.968;2022-10-23T17:43:54;74.67;;;36.67;;
15383;SDS011;7790;53.022;12.968;2022-10-23T17:47:55;73.23;;;36.63;;
15383;SDS011;7790;53.022;12.968;2022-10-23T17:51:56;68.90;;;34.57;;
15383;SDS011;7790;53.022;12.968;2022-10-23T17:55:59;65.50;;;33.57;;
15383;SDS011;7790;53.022;12.968;2022-10-23T18:00:02;60.83;;;32.90;;
15383;SDS011;7790;53.022;12.968;2022-10-23T18:04:12;64.73;;;33.83;;
15383;SDS011;7790;53.022;12.968;2022-10-23T18:08:15;67.23;;;34.33;;
15383;SDS011;7790;53.022;12.968;2022-10-23T18:12:16;58.43;;;28.93;;
15383;SDS011;7790;53.022;12.968;2022-10-23T18:16:17;54.17;;;28.83;;
15383;SDS011;7790;53.022;12.968;2022-10-23T18:20:18;46.70;;;24.47;;
15383;SDS011;7790;53.022;12.968;2022-10-23T18:24:19;45.67;;;20.90;;
15383;SDS011;7790;53.022;12.968;2022-10-23T18:28:20;44.10;;;18.73;;
15383;SDS011;7790;53.022;12.968;2022-10-23T18:32:21;40.73;;;18.73;;
15383;SDS011;7790;53.022;12.968;2022-10-23T18:36:24;38.17;;;17.07;;
15383;SDS011;7790;53.022;12.968;2022-10-23T18:40:26;34.73;;;17.00;;
15383;SDS011;7790;53.022;12.968;2022-10-23T18:44:27;39.63;;;18.50;;
15383;SDS011;7790;53.022;12.968;2022-10-23T18:48:28;37.37;;;17.33;;
15383;SDS011;7790;53.022;12.968;2022-10-23T18:52:30;33.20;;;18.43;;
15383;SDS011;7790;53.022;12.968;2022-10-23T18:56:30;32.97;;;15.97;;
15383;SDS011;7790;53.022;12.968;2022-10-23T19:00:33;32.83;;;16.57;;
15383;SDS011;7790;53.022;12.968;2022-10-23T19:04:34;32.70;;;16.60;;
15383;SDS011;7790;53.022;12.968;2022-10-23T19:08:41;28.03;;;14.87;;
15383;SDS011;7790;53.022;12.968;2022-10-23T19:12:43;28.23;;;14.57;;
15383;SDS011;7790;53.022;12.968;2022-10-23T19:20:54;27.23;;;13.73;;
15383;SDS011;7790;53.022;12.968;2022-10-23T19:25:00;28.53;;;14.07;;
15383;SDS011;7790;53.022;12.968;2022-10-23T19:29:15;27.73;;;13.57;;
15383;SDS011;7790;53.022;12.968;2022-10-23T19:33:19;21.73;;;13.63;;
15383;SDS011;7790;53.022;12.968;2022-10-23T19:37:19;24.90;;;13.17;;
15383;SDS011;7790;53.022;12.968;2022-10-23T19:41:20;22.60;;;12.37;;
15383;SDS011;7790;53.022;12.968;2022-10-23T19:45:21;25.50;;;12.40;;
15383;SDS011;7790;53.022;12.968;2022-10-23T19:49:22;17.47;;;10.63;;
15383;SDS011;7790;53.022;12.968;2022-10-23T19:53:23;22.60;;;12.47;;
15383;SDS011;7790;53.022;12.968;2022-10-23T19:57:24;18.87;;;10.87;;
15383;SDS011;7790;53.022;12.968;2022-10-23T20:01:25;18.80;;;10.97;;
15383;SDS011;7790;53.022;12.968;2022-10-23T20:05:26;16.90;;;10.67;;
15383;SDS011;7790;53.022;12.968;2022-10-23T20:09:26;16.83;;;10.73;;
15383;SDS011;7790;53.022;12.968;2022-10-23T20:13:27;18.63;;;10.57;;
15383;SDS011;7790;53.022;12.968;2022-10-23T20:17:28;18.47;;;10.30;;
15383;SDS011;7790;53.022;12.968;2022-10-23T20:21:29;23.27;;;10.63;;
15383;SDS011;7790;53.022;12.968;2022-10-23T20:25:30;16.07;;;9.97;;
15383;SDS011;7790;53.022;12.968;2022-10-23T20:29:31;15.87;;;9.37;;
15383;SDS011;7790;53.022;12.968;2022-10-23T20:33:32;16.93;;;9.40;;
15383;SDS011;7790;53.022;12.968;2022-10-23T20:37:33;14.20;;;9.37;;
15383;SDS011;7790;53.022;12.968;2022-10-23T20:41:34;16.73;;;10.50;;
15383;SDS011;7790;53.022;12.968;2022-10-23T20:45:36;17.83;;;10.20;;
15383;SDS011;7790;53.022;12.968;2022-10-23T20:49:37;16.60;;;9.63;;
15383;SDS011;7790;53.022;12.968;2022-10-23T20:53:37;13.97;;;8.47;;
15383;SDS011;7790;53.022;12.968;2022-10-23T20:57:39;17.07;;;9.50;;
15383;SDS011;7790;53.022;12.968;2022-10-23T21:01:41;13.60;;;8.27;;
15383;SDS011;7790;53.022;12.968;2022-10-23T21:05:43;13.93;;;8.63;;
15383;SDS011;7790;53.022;12.968;2022-10-23T21:09:46;14.07;;;9.23;;
15383;SDS011;7790;53.022;12.968;2022-10-23T21:13:47;14.43;;;8.37;;
15383;SDS011;7790;53.022;12.968;2022-10-23T21:17:48;13.80;;;8.40;;
15383;SDS011;7790;53.022;12.968;2022-10-23T21:21:51;13.07;;;8.37;;
15383;SDS011;7790;53.022;12.968;2022-10-23T21:25:52;12.10;;;7.97;;
15383;SDS011;7790;53.022;12.968;2022-10-23T21:29:53;12.97;;;8.07;;
15383;SDS011;7790;53.022;12.968;2022-10-23T21:33:53;13.77;;;8.43;;
15383;SDS011;7790;53.022;12.968;2022-10-23T21:37:55;14.03;;;8.47;;
15383;SDS011;7790;53.022;12.968;2022-10-23T21:41:56;12.10;;;7.43;;
15383;SDS011;7790;53.022;12.968;2022-10-23T21:46:01;10.57;;;7.27;;
15383;SDS011;7790;53.022;12.968;2022-10-23T21:50:03;12.27;;;7.83;;
15383;SDS011;7790;53.022;12.968;2022-10-23T21:54:05;13.40;;;6.97;;
15383;SDS011;7790;53.022;12.968;2022-10-23T21:58:07;11.13;;;7.47;;
15383;SDS011;7790;53.022;12.968;2022-10-23T22:02:09;9.70;;;6.53;;
15383;SDS011;7790;53.022;12.968;2022-10-23T22:06:17;11.47;;;6.77;;
15383;SDS011;7790;53.022;12.968;2022-10-23T22:10:19;10.03;;;7.37;;
15383;SDS011;7790;53.022;12.968;2022-10-23T22:14:20;9.33;;;6.33;;
15383;SDS011;7790;53.022;12.968;2022-10-23T22:18:21;10.57;;;6.80;;
15383;SDS011;7790;53.022;12.968;2022-10-23T22:22:22;8.80;;;6.53;;
15383;SDS011;7790;53.022;12.968;2022-10-23T22:26:25;10.23;;;6.40;;
15383;SDS011;7790;53.022;12.968;2022-10-23T22:30:29;8.03;;;5.83;;
15383;SDS011;7790;53.022;12.968;2022-10-23T22:34:29;9.47;;;6.43;;
15383;SDS011;7790;53.022;12.968;2022-10-23T22:38:30;8.20;;;5.57;;
15383;SDS011;7790;53.022;12.968;2022-10-23T22:42:31;9.00;;;5.77;;
15383;SDS011;7790;53.022;12.968;2022-10-23T22:46:32;10.57;;;6.30;;
15383;SDS011;7790;53.022;12.968;2022-10-23T22:50:33;8.23;;;5.73;;
15383;SDS011;7790;53.022;12.968;2022-10-23T22:54:34;6.67;;;5.50;;
15383;SDS011;7790;53.022;12.968;2022-10-23T22:58:35;7.33;;;5.43;;
15383;SDS011;7790;53.022;12.968;2022-10-23T23:02:36;8.20;;;5.77;;
15383;SDS011;7790;53.022;12.968;2022-10-23T23:06:37;6.80;;;5.53;;
15383;SDS011;7790;53.022;12.968;2022-10-23T23:10:38;7.43;;;5.50;;
15383;SDS011;7790;53.022;12.968;2022-10-23T23:14:40;7.23;;;5.50;;
15383;SDS011;7790;53.022;12.968;2022-10-23T23:18:41;6.97;;;5.00;;
15383;SDS011;7790;53.022;12.968;2022-10-23T23:22:42;5.90;;;4.90;;
15383;SDS011;7790;53.022;12.968;2022-10-23T23:26:43;7.13;;;5.00;;
15383;SDS011;7790;53.022;12.968;2022-10-23T23:30:44;6.93;;;5.03;;
15383;SDS011;7790;53.022;12.968;2022-10-23T23:34:45;7.23;;;5.57;;
15383;SDS011;7790;53.022;12.968;2022-10-23T23:38:46;6.17;;;4.63;;
15383;SDS011;7790;53.022;12.968;2022-10-23T23:42:47;5.63;;;4.70;;
15383;SDS011;7790;53.022;12.968;2022-10-23T23:46:48;5.90;;;4.80;;
15383;SDS011;7790;53.022;12.968;2022-10-23T23:50:49;7.50;;;5.07;;
15383;SDS011;7790;53.022;12.968;2022-10-23T23:54:50;5.90;;;4.57;;
15383;SDS011;7790;53.022;12.968;2022-10-23T23:58:51;5.60;;;4.10;;
